Time;durP1;ratioP1;P1;durP2;ratioP2;P2;SDS_P1;SDS_P2;PMS_P1;PMS_P2;Temp;Humidity;BMP_temperature;BMP_pressure;BME280_temperature;BME280_humidity;BME280_pressure;Samples;Min_cycle;Max_cycle;Signal;HPM_P1;HPM_P2
2022/01/23 00:00:51;;;;;;;24.77;11.50;;;4.60;99.90;;;;;;5109661;28;20027;-77
2022/01/23 00:03:19;;;;;;;20.10;10.83;;;4.60;99.90;;;;;;5096439;28;20081;-78
2022/01/23 00:05:47;;;;;;;22.03;10.47;;;4.70;99.90;;;;;;5113249;28;20056;-78
2022/01/23 00:08:15;;;;;;;24.67;11.43;;;4.60;99.90;;;;;;5096263;28;20069;-77
2022/01/23 00:10:42;;;;;;;25.77;11.73;;;4.70;99.90;;;;;;5094926;28;20055;-78
2022/01/23 00:13:17;;;;;;;23.17;11.73;;;4.70;99.90;;;;;;5095582;28;20487;-78
2022/01/23 00:18:28;;;;;;;27.53;11.90;;;4.60;99.90;;;;;;5113695;28;20054;-77
2022/01/23 00:20:55;;;;;;;24.10;11.73;;;4.60;99.90;;;;;;5113126;28;20031;-77
2022/01/23 00:23:31;;;;;;;20.07;10.57;;;4.60;99.90;;;;;;5114231;28;20027;-77
2022/01/23 00:31:28;;;;;;;24.43;11.17;;;4.60;99.90;;;;;;5113509;28;20034;-77
2022/01/23 00:33:55;;;;;;;27.87;11.37;;;4.60;99.90;;;;;;5113216;28;20030;-77
2022/01/23 00:36:25;;;;;;;24.53;11.50;;;4.60;99.90;;;;;;5082567;28;20448;-77
2022/01/23 00:38:51;;;;;;;26.13;12.57;;;4.60;99.90;;;;;;5112907;28;20026;-78
2022/01/23 00:41:17;;;;;;;23.73;10.90;;;4.60;99.90;;;;;;5112921;28;20054;-77
2022/01/23 00:43:45;;;;;;;26.57;11.43;;;4.60;99.90;;;;;;5095259;28;20020;-77
2022/01/23 00:46:23;;;;;;;24.43;11.20;;;4.60;99.90;;;;;;5113688;28;20023;-77
2022/01/23 00:51:27;;;;;;;24.13;10.43;;;4.60;99.90;;;;;;5113350;28;20086;-77
2022/01/23 00:53:54;;;;;;;23.43;11.23;;;4.60;99.90;;;;;;5112547;28;20051;-77
2022/01/23 00:56:20;;;;;;;25.57;11.67;;;4.70;99.90;;;;;;5096489;28;20031;-77
2022/01/23 00:58:46;;;;;;;21.83;11.07;;;4.60;99.90;;;;;;5094508;28;20034;-77
2022/01/23 01:01:12;;;;;;;25.50;11.30;;;4.60;99.90;;;;;;5094663;28;20480;-78
2022/01/23 01:03:38;;;;;;;22.50;10.73;;;4.60;99.90;;;;;;5095615;28;20118;-79
2022/01/23 01:06:04;;;;;;;24.23;12.00;;;4.60;99.90;;;;;;5112909;28;20050;-78
2022/01/23 01:08:30;;;;;;;27.83;12.33;;;4.70;99.90;;;;;;5095338;28;20024;-77
2022/01/23 01:13:30;;;;;;;26.27;11.27;;;4.60;99.90;;;;;;5113048;28;20027;-78
2022/01/23 01:16:34;;;;;;;22.90;11.10;;;4.60;99.90;;;;;;5074392;28;20028;-78
2022/01/23 01:33:25;;;;;;;24.53;11.83;;;4.60;99.90;;;;;;5113389;28;20492;-79
2022/01/23 01:35:28;;;;;;;24.57;11.47;;;4.60;99.90;;;;;;5104603;28;20039;-78
2022/01/23 01:37:54;;;;;;;19.50;9.43;;;4.60;99.90;;;;;;5113139;28;20019;-78
2022/01/23 01:40:22;;;;;;;25.70;12.43;;;4.60;99.90;;;;;;5113372;28;20032;-78
2022/01/23 01:42:49;;;;;;;26.10;11.70;;;4.60;99.90;;;;;;5113153;28;20027;-78
2022/01/23 01:45:28;;;;;;;28.00;12.50;;;4.60;99.90;;;;;;5095732;28;20024;-78
2022/01/23 01:47:56;;;;;;;25.97;12.50;;;4.60;99.90;;;;;;5112522;28;20076;-79
2022/01/23 01:50:21;;;;;;;27.63;12.37;;;4.60;99.90;;;;;;5095170;28;20030;-78
2022/01/23 01:52:47;;;;;;;27.23;12.50;;;4.60;99.90;;;;;;5095551;28;20028;-77
2022/01/23 01:55:21;;;;;;;28.37;12.83;;;4.60;99.90;;;;;;5098554;28;20373;-77
2022/01/23 01:57:53;;;;;;;26.50;12.73;;;4.70;99.90;;;;;;5098162;28;20381;-77
2022/01/23 02:00:38;;;;;;;;;;;4.60;99.90;;;;;;5099176;28;20167;-78
2022/01/23 02:08:26;;;;;;;25.93;12.10;;;4.70;99.90;;;;;;5080725;28;20028;-77
2022/01/23 02:10:58;;;;;;;26.20;12.17;;;4.70;99.90;;;;;;5116351;28;20020;-77
2022/01/23 02:13:39;;;;;;;28.57;12.50;;;4.70;99.90;;;;;;5116684;28;20028;-77
2022/01/23 02:56:50;;;;;;;20.27;9.97;;;4.50;99.90;;;;;;5115054;28;20107;-78
2022/01/23 03:02:08;;;;;;;24.53;11.80;;;4.60;99.90;;;;;;5114588;28;20047;-77
2022/01/23 03:04:38;;;;;;;23.50;10.70;;;4.60;99.90;;;;;;5096848;28;20055;-77
2022/01/23 03:07:16;;;;;;;23.00;10.67;;;4.70;99.90;;;;;;5115310;28;20031;-77
2022/01/23 03:15:25;;;;;;;25.27;10.90;;;4.70;99.90;;;;;;5115675;28;20032;-78
2022/01/23 03:28:20;;;;;;;25.83;11.17;;;4.70;99.90;;;;;;5114970;28;20020;-78
2022/01/23 03:31:05;;;;;;;21.15;10.25;;;4.70;99.90;;;;;;5096761;28;20032;-78
2022/01/23 03:33:35;;;;;;;26.90;11.47;;;4.70;99.90;;;;;;5096749;28;20032;-78
2022/01/23 03:36:03;;;;;;;26.63;11.07;;;4.70;99.90;;;;;;5095768;28;20419;-78
2022/01/23 03:38:29;;;;;;;25.67;11.37;;;4.70;99.90;;;;;;5096711;28;20047;-78
2022/01/23 03:40:54;;;;;;;21.97;11.33;;;4.70;99.90;;;;;;5095915;28;20112;-78
2022/01/23 03:43:25;;;;;;;25.23;11.77;;;4.80;99.90;;;;;;5114631;28;20024;-78
2022/01/23 03:46:22;;;;;;;23.87;11.03;;;4.70;99.90;;;;;;5096237;28;20036;-78
2022/01/23 03:51:35;;;;;;;25.80;11.50;;;4.70;99.90;;;;;;5112110;28;20043;-79
2022/01/23 03:54:01;;;;;;;26.03;11.67;;;4.80;99.90;;;;;;5095890;28;20215;-78
2022/01/23 03:56:30;;;;;;;25.93;11.23;;;4.80;99.90;;;;;;5096317;28;20032;-77
2022/01/23 03:58:57;;;;;;;25.10;10.70;;;4.70;99.90;;;;;;5095575;28;20024;-77
2022/01/23 04:01:23;;;;;;;21.63;10.67;;;4.80;99.90;;;;;;5095926;28;20035;-78
2022/01/23 04:03:50;;;;;;;24.00;10.87;;;4.80;99.90;;;;;;5095687;28;20084;-78
2022/01/23 04:06:15;;;;;;;25.70;10.57;;;4.80;99.90;;;;;;5105922;28;20031;-78
2022/01/23 04:08:41;;;;;;;21.50;10.73;;;4.90;99.90;;;;;;5096443;28;20023;-78
2022/01/23 04:11:07;;;;;;;27.17;10.97;;;4.80;99.90;;;;;;5114364;28;20028;-78
2022/01/23 04:13:45;;;;;;;25.23;10.43;;;4.80;99.90;;;;;;5096003;28;20028;-77
2022/01/23 04:31:42;;;;;;;21.63;10.33;;;4.80;99.90;;;;;;5113673;28;20037;-78
2022/01/23 04:35:13;;;;;;;25.53;10.07;;;4.80;99.90;;;;;;5112914;28;20019;-78
2022/01/23 04:46:05;;;;;;;22.57;10.27;;;4.80;99.90;;;;;;5112063;28;20512;-76
2022/01/23 05:03:01;;;;;;;22.17;10.00;;;4.80;99.90;;;;;;5099180;28;20035;-77
2022/01/23 05:05:11;;;;;;;21.53;10.00;;;4.80;99.90;;;;;;5103623;28;20098;-77
2022/01/23 05:07:39;;;;;;;20.70;10.23;;;4.80;99.90;;;;;;5095632;28;20051;-78
2022/01/23 05:10:05;;;;;;;23.67;10.33;;;4.80;99.90;;;;;;5112507;28;20019;-78
2022/01/23 05:12:33;;;;;;;26.80;10.80;;;4.80;99.90;;;;;;5101555;28;20027;-78
2022/01/23 05:14:59;;;;;;;21.33;9.53;;;4.80;99.90;;;;;;5112401;28;20020;-77
2022/01/23 05:17:26;;;;;;;20.47;10.47;;;4.80;99.90;;;;;;5094706;28;20119;-77
2022/01/23 05:19:52;;;;;;;19.30;10.07;;;4.80;99.90;;;;;;5094065;28;20024;-77
2022/01/23 05:25:11;;;;;;;21.97;10.50;;;4.80;99.90;;;;;;5112190;28;20047;-77
2022/01/23 05:27:36;;;;;;;19.50;9.32;;;4.80;99.90;;;;;;5109768;28;20027;-78
2022/01/23 05:30:03;;;;;;;22.30;10.13;;;4.80;99.90;;;;;;5094325;28;20027;-78
2022/01/23 05:32:37;;;;;;;20.93;9.63;;;4.70;99.90;;;;;;5095158;28;20384;-78
2022/01/23 05:35:05;;;;;;;21.80;10.17;;;4.70;99.90;;;;;;5094285;28;20034;-78
2022/01/23 05:37:32;;;;;;;25.70;10.60;;;4.70;99.90;;;;;;5109789;28;20020;-79
2022/01/23 05:39:58;;;;;;;23.77;10.90;;;4.70;99.90;;;;;;5094552;28;20020;-78
2022/01/23 05:42:24;;;;;;;23.77;10.83;;;4.70;99.90;;;;;;5095016;28;20460;-78
2022/01/23 05:44:49;;;;;;;21.67;10.03;;;4.70;99.90;;;;;;5094167;28;20388;-78
2022/01/23 05:47:15;;;;;;;20.80;10.57;;;4.70;99.90;;;;;;5095209;28;20080;-78
2022/01/23 05:49:41;;;;;;;21.27;10.40;;;4.70;99.90;;;;;;5094867;28;20036;-78
2022/01/23 05:52:08;;;;;;;26.17;10.60;;;4.70;99.90;;;;;;5095031;28;20023;-78
2022/01/23 05:54:34;;;;;;;21.43;10.83;;;4.70;99.90;;;;;;5094892;28;20027;-79
2022/01/23 05:56:59;;;;;;;21.20;9.93;;;4.70;99.90;;;;;;5093819;28;20061;-77
2022/01/23 05:59:25;;;;;;;25.17;10.57;;;4.70;99.90;;;;;;5094264;28;20023;-78
2022/01/23 06:01:51;;;;;;;25.17;10.47;;;4.70;99.90;;;;;;5093567;28;20031;-77
2022/01/23 06:04:21;;;;;;;24.47;10.67;;;4.70;99.90;;;;;;5094232;28;20047;-77
2022/01/23 06:06:48;;;;;;;22.37;10.13;;;4.70;99.90;;;;;;5112466;28;20461;-78
2022/01/23 06:09:15;;;;;;;17.47;9.53;;;4.80;99.90;;;;;;5094811;28;20384;-78
2022/01/23 06:11:41;;;;;;;25.40;9.63;;;4.80;99.90;;;;;;5094702;28;20059;-78
2022/01/23 06:14:08;;;;;;;22.47;10.30;;;4.80;99.90;;;;;;5095039;28;20078;-78
2022/01/23 06:16:35;;;;;;;21.53;9.60;;;4.90;99.90;;;;;;5092259;28;20047;-77
2022/01/23 06:19:00;;;;;;;19.83;9.57;;;4.90;99.90;;;;;;5092845;28;20114;-77
2022/01/23 06:21:26;;;;;;;21.17;9.93;;;4.90;99.90;;;;;;5094813;28;20432;-77
2022/01/23 06:26:46;;;;;;;18.60;9.10;;;4.90;99.90;;;;;;5081465;28;20041;-77
2022/01/23 06:29:14;;;;;;;24.50;10.53;;;4.80;99.90;;;;;;5092565;28;20103;-77
2022/01/23 06:31:41;;;;;;;20.53;10.30;;;4.80;99.90;;;;;;5091261;28;20024;-77
2022/01/23 06:34:08;;;;;;;22.93;10.13;;;4.80;99.90;;;;;;5090798;28;20024;-77
2022/01/23 06:36:35;;;;;;;20.03;10.10;;;4.80;99.90;;;;;;5092167;28;20020;-77
2022/01/23 06:39:02;;;;;;;18.50;9.53;;;4.80;99.90;;;;;;5091796;28;20043;-77
2022/01/23 06:41:28;;;;;;;21.97;10.20;;;4.80;99.90;;;;;;5094657;28;20032;-77
2022/01/23 06:43:54;;;;;;;20.83;9.67;;;4.80;99.90;;;;;;5094309;28;20031;-77
2022/01/23 06:46:19;;;;;;;22.13;11.10;;;4.80;99.90;;;;;;5094897;28;20028;-77
2022/01/23 06:48:45;;;;;;;19.30;10.47;;;4.90;99.90;;;;;;5094917;28;20408;-77
2022/01/23 06:51:11;;;;;;;24.87;11.23;;;4.80;99.90;;;;;;5095562;28;20024;-77
2022/01/23 06:53:36;;;;;;;24.17;10.83;;;4.90;99.90;;;;;;5096022;28;20028;-77
2022/01/23 06:56:02;;;;;;;25.23;11.47;;;4.80;99.90;;;;;;5094927;28;20023;-77
2022/01/23 06:58:28;;;;;;;23.30;11.23;;;4.80;99.90;;;;;;5094882;28;20024;-77
2022/01/23 07:00:53;;;;;;;24.03;10.13;;;4.80;99.90;;;;;;5093208;28;20411;-78
2022/01/23 07:03:19;;;;;;;23.03;11.20;;;4.80;99.90;;;;;;5094575;28;20023;-78
2022/01/23 07:05:45;;;;;;;22.13;10.90;;;4.80;99.90;;;;;;5094756;28;20077;-79
2022/01/23 07:08:10;;;;;;;24.07;10.87;;;4.80;99.90;;;;;;5096268;28;20065;-78
2022/01/23 07:10:36;;;;;;;25.67;10.87;;;4.80;99.90;;;;;;5094271;28;20031;-78
2022/01/23 07:13:02;;;;;;;22.47;11.43;;;4.80;99.90;;;;;;5094201;28;20097;-78
2022/01/23 07:15:28;;;;;;;26.23;11.73;;;4.80;99.90;;;;;;5093678;28;20465;-77
2022/01/23 07:17:53;;;;;;;25.67;11.40;;;4.80;99.90;;;;;;5101317;28;20024;-78
2022/01/23 07:20:19;;;;;;;25.03;10.93;;;4.90;99.90;;;;;;5102245;28;20040;-78
2022/01/23 07:22:45;;;;;;;21.80;11.07;;;4.90;99.90;;;;;;5103912;28;20024;-77
2022/01/23 07:25:11;;;;;;;26.60;11.57;;;4.90;99.90;;;;;;5105890;27;20104;-77
2022/01/23 07:27:42;;;;;;;23.30;10.93;;;4.90;99.90;;;;;;5105424;28;20061;-77
2022/01/23 07:30:21;;;;;;;24.10;11.95;;;4.90;99.90;;;;;;5105457;27;20057;-78
2022/01/23 07:32:46;;;;;;;24.63;10.83;;;4.90;99.90;;;;;;5122192;27;20147;-77
2022/01/23 07:35:12;;;;;;;27.10;11.20;;;4.80;99.90;;;;;;5105919;27;20052;-79
2022/01/23 07:37:38;;;;;;;22.47;11.70;;;4.90;99.90;;;;;;5125843;27;20019;-78
2022/01/23 07:40:04;;;;;;;27.30;11.07;;;4.90;99.90;;;;;;5118333;27;20453;-78
2022/01/23 07:42:30;;;;;;;21.90;11.07;;;4.80;99.90;;;;;;5108091;27;20039;-77
2022/01/23 07:44:55;;;;;;;25.47;11.53;;;4.90;99.90;;;;;;5104332;27;20512;-78
2022/01/23 07:47:22;;;;;;;26.47;11.70;;;4.90;99.90;;;;;;5106425;27;20457;-78
2022/01/23 07:49:49;;;;;;;26.87;11.47;;;4.90;99.90;;;;;;5110548;27;20038;-79
2022/01/23 07:52:16;;;;;;;25.57;11.17;;;4.90;99.90;;;;;;5104599;27;20023;-78
2022/01/23 07:54:42;;;;;;;22.83;11.13;;;4.90;99.90;;;;;;5125235;27;20072;-77
2022/01/23 07:57:08;;;;;;;21.63;11.23;;;4.90;99.90;;;;;;5104296;27;20023;-77
2022/01/23 07:59:37;;;;;;;24.27;10.80;;;4.90;99.90;;;;;;5126358;27;20065;-77
2022/01/23 08:02:03;;;;;;;26.43;11.40;;;4.90;99.90;;;;;;5121928;27;20026;-76
2022/01/23 08:04:29;;;;;;;20.23;10.83;;;4.90;99.90;;;;;;5103117;27;20423;-76
2022/01/23 08:09:40;;;;;;;25.47;11.83;;;4.90;99.90;;;;;;5117783;27;20111;-77
2022/01/23 08:12:06;;;;;;;26.00;12.30;;;4.90;99.90;;;;;;5105915;27;20110;-77
2022/01/23 08:14:31;;;;;;;26.00;10.97;;;4.90;99.90;;;;;;5104348;27;20058;-78
2022/01/23 08:16:57;;;;;;;25.47;11.17;;;4.80;99.90;;;;;;5118756;27;20380;-77
2022/01/23 08:19:23;;;;;;;26.30;12.20;;;4.90;99.90;;;;;;5106519;27;20055;-78
2022/01/23 08:21:48;;;;;;;25.27;11.63;;;4.90;99.90;;;;;;5104951;27;20019;-77
2022/01/23 08:24:14;;;;;;;30.67;12.63;;;4.90;99.90;;;;;;5107151;27;20026;-77
2022/01/23 08:26:40;;;;;;;25.60;11.37;;;4.90;99.90;;;;;;5119086;27;20054;-77
2022/01/23 08:29:05;;;;;;;26.90;11.77;;;4.90;99.90;;;;;;5104113;27;20076;-76
2022/01/23 08:31:32;;;;;;;26.30;11.47;;;5.00;99.90;;;;;;5122460;27;20384;-76
2022/01/23 08:33:58;;;;;;;22.27;11.37;;;5.00;99.90;;;;;;5108604;28;20110;-76
2022/01/23 08:36:24;;;;;;;28.27;12.17;;;5.00;99.90;;;;;;5104051;28;20442;-76
2022/01/23 08:38:49;;;;;;;24.93;11.87;;;5.10;99.90;;;;;;5101598;28;20031;-76
2022/01/23 08:43:44;;;;;;;26.80;11.63;;;5.10;99.90;;;;;;5111233;28;20038;-76
2022/01/23 08:46:10;;;;;;;24.17;11.63;;;5.10;99.90;;;;;;5100040;27;20035;-76
2022/01/23 08:48:35;;;;;;;31.23;12.23;;;5.10;99.90;;;;;;5104230;27;20042;-78
2022/01/23 08:51:01;;;;;;;26.67;12.20;;;5.10;99.90;;;;;;5104963;28;20375;-77
2022/01/23 08:53:27;;;;;;;25.23;12.03;;;5.10;99.90;;;;;;5095766;28;20028;-76
2022/01/23 08:55:52;;;;;;;28.97;13.10;;;5.20;99.90;;;;;;5094324;28;20027;-76
2022/01/23 08:58:18;;;;;;;25.77;11.77;;;5.20;99.90;;;;;;5094891;28;20019;-76
2022/01/23 09:00:44;;;;;;;25.37;11.50;;;5.20;99.90;;;;;;5094281;28;20035;-76
2022/01/23 09:03:10;;;;;;;23.03;11.77;;;5.20;99.90;;;;;;5106996;28;20032;-78
2022/01/23 09:05:36;;;;;;;24.17;11.37;;;5.20;99.90;;;;;;5111013;28;20525;-78
2022/01/23 09:08:02;;;;;;;25.37;11.57;;;5.20;99.90;;;;;;5095020;28;20023;-78
2022/01/23 09:10:29;;;;;;;25.00;11.80;;;5.20;99.90;;;;;;5095608;28;20080;-77
2022/01/23 09:15:22;;;;;;;26.73;11.57;;;5.20;99.90;;;;;;5113101;28;20114;-77
2022/01/23 09:17:48;;;;;;;25.13;11.93;;;5.30;99.90;;;;;;5094221;28;20047;-76
2022/01/23 09:20:15;;;;;;;25.97;12.20;;;5.20;99.90;;;;;;5094907;28;20055;-76
2022/01/23 09:22:40;;;;;;;28.37;12.20;;;5.30;99.90;;;;;;5112597;28;20106;-77
2022/01/23 09:25:06;;;;;;;25.77;12.30;;;5.30;99.90;;;;;;5111725;28;20091;-76
2022/01/23 09:27:33;;;;;;;27.40;12.70;;;5.30;99.90;;;;;;5094981;28;20073;-77
2022/01/23 09:30:05;;;;;;;29.23;12.07;;;5.30;99.90;;;;;;5113043;28;20028;-77
2022/01/23 09:32:32;;;;;;;27.03;12.03;;;5.30;99.90;;;;;;5123623;27;20024;-76
2022/01/23 09:34:57;;;;;;;29.63;13.13;;;5.40;99.90;;;;;;5102345;28;20042;-76
2022/01/23 09:37:23;;;;;;;31.73;12.97;;;5.40;99.90;;;;;;5121683;28;20024;-76
2022/01/23 09:39:50;;;;;;;26.77;13.33;;;5.40;99.90;;;;;;5100207;28;20456;-77
2022/01/23 09:42:28;;;;;;;29.77;13.67;;;5.50;99.90;;;;;;5120525;28;20015;-77
2022/01/23 09:44:58;;;;;;;30.77;12.83;;;5.50;99.90;;;;;;5099251;28;20030;-77
2022/01/23 09:47:24;;;;;;;29.47;12.80;;;5.60;99.90;;;;;;5102201;28;20035;-76
2022/01/23 09:49:53;;;;;;;26.17;12.23;;;5.60;99.90;;;;;;5102240;28;20034;-76
2022/01/23 09:52:19;;;;;;;26.57;13.17;;;5.60;99.90;;;;;;5102546;28;20031;-76
2022/01/23 09:54:55;;;;;;;24.17;12.00;;;5.60;99.90;;;;;;5098189;28;20023;-79
2022/01/23 09:57:24;;;;;;;26.20;11.83;;;5.60;99.90;;;;;;5094622;28;20380;-80
2022/01/23 09:59:54;;;;;;;30.07;12.83;;;5.60;99.90;;;;;;5091503;28;20469;-80
2022/01/23 10:02:20;;;;;;;32.10;13.40;;;5.60;99.90;;;;;;5094581;28;20023;-77
2022/01/23 10:04:46;;;;;;;28.83;12.07;;;5.60;99.90;;;;;;5087628;28;20020;-77
2022/01/23 10:07:13;;;;;;;25.40;12.60;;;5.60;99.90;;;;;;5088142;28;20050;-76
2022/01/23 10:09:38;;;;;;;23.87;12.53;;;5.70;99.90;;;;;;5094262;28;20136;-76
2022/01/23 10:12:06;;;;;;;26.83;13.00;;;5.70;99.90;;;;;;5093428;28;20534;-76
2022/01/23 10:14:32;;;;;;;29.60;13.20;;;5.70;99.90;;;;;;5113336;28;20020;-76
2022/01/23 10:16:59;;;;;;;30.00;13.23;;;5.70;99.90;;;;;;5097313;28;20433;-76
2022/01/23 10:19:25;;;;;;;30.73;14.13;;;5.80;99.90;;;;;;5097500;28;20032;-78
2022/01/23 10:21:51;;;;;;;32.13;14.30;;;5.80;99.90;;;;;;5097593;28;20111;-78
2022/01/23 10:24:16;;;;;;;34.53;15.00;;;5.80;99.90;;;;;;5110758;28;20106;-78
2022/01/23 10:26:50;;;;;;;43.70;20.53;;;5.80;99.90;;;;;;5096342;28;20061;-79
2022/01/23 10:29:18;;;;;;;30.77;14.20;;;5.80;99.90;;;;;;5110604;28;20020;-78
2022/01/23 10:32:04;;;;;;;30.60;14.27;;;5.90;99.90;;;;;;5092709;28;20063;-78
2022/01/23 10:34:41;;;;;;;34.60;14.07;;;5.90;99.90;;;;;;5081981;28;20122;-80
2022/01/23 10:37:07;;;;;;;31.23;14.90;;;5.90;99.90;;;;;;5107923;28;20035;-77
2022/01/23 10:39:46;;;;;;;30.87;14.83;;;5.90;99.90;;;;;;5097993;28;20058;-79
2022/01/23 10:48:11;;;;;;;28.73;13.93;;;6.00;99.90;;;;;;5115496;28;20038;-78
2022/01/23 10:50:36;;;;;;;26.33;13.60;;;6.20;99.90;;;;;;5114386;28;20072;-78
2022/01/23 10:53:02;;;;;;;30.60;14.13;;;6.20;99.90;;;;;;5114903;28;20081;-77
2022/01/23 10:55:33;;;;;;;30.80;14.27;;;6.20;99.90;;;;;;5097619;28;20030;-78
2022/01/23 10:58:02;;;;;;;30.87;14.37;;;6.20;99.90;;;;;;5080172;28;20104;-78
2022/01/23 11:00:33;;;;;;;27.40;13.63;;;6.30;99.90;;;;;;5097321;28;20189;-78
2022/01/23 11:03:02;;;;;;;29.40;13.68;;;6.20;99.90;;;;;;5109387;28;20054;-77
2022/01/23 11:05:36;;;;;;;27.80;13.47;;;6.30;99.90;;;;;;5108545;28;20024;-77
2022/01/23 11:08:18;;;;;;;31.07;14.67;;;6.30;99.90;;;;;;5099084;28;20031;-77
2022/01/23 11:11:01;;;;;;;29.30;13.13;;;6.30;99.90;;;;;;5093556;28;20038;-80
2022/01/23 11:19:18;;;;;;;28.83;13.63;;;6.40;99.90;;;;;;5105936;28;20054;-80
2022/01/23 11:21:44;;;;;;;30.10;14.73;;;6.40;99.90;;;;;;5096002;28;20024;-78
2022/01/23 11:24:12;;;;;;;29.00;14.07;;;6.40;99.90;;;;;;5094928;28;20028;-78
2022/01/23 11:26:38;;;;;;;30.83;14.37;;;6.40;99.90;;;;;;5092482;28;20040;-77
2022/01/23 11:29:13;;;;;;;30.43;14.43;;;6.50;99.90;;;;;;5093014;28;20107;-77
2022/01/23 11:31:40;;;;;;;28.77;13.90;;;6.50;99.90;;;;;;5092651;28;20024;-78
2022/01/23 11:34:07;;;;;;;31.57;14.63;;;6.50;99.90;;;;;;5089441;28;20016;-77
2022/01/23 11:36:33;;;;;;;33.60;14.67;;;6.50;99.90;;;;;;5081744;28;20024;-77
2022/01/23 11:39:10;;;;;;;31.43;14.47;;;6.60;99.90;;;;;;5093327;28;20086;-78
2022/01/23 11:55:46;;;;;;;29.17;13.97;;;6.70;99.90;;;;;;5092818;28;20081;-77
2022/01/23 11:58:36;;;;;;;28.63;14.57;;;6.80;99.90;;;;;;5092340;28;20422;-77
2022/01/23 12:01:19;;;;;;;27.87;14.00;;;6.90;99.90;;;;;;5091628;28;20032;-78
2022/01/23 12:04:14;;;;;;;25.67;12.60;;;6.90;99.90;;;;;;5081904;28;20028;-77
2022/01/23 12:06:42;;;;;;;24.70;12.00;;;7.00;99.90;;;;;;5082389;28;20028;-78
2022/01/23 12:09:14;;;;;;;25.80;12.03;;;7.00;99.90;;;;;;5092263;28;20032;-78
2022/01/23 12:11:53;;;;;;;25.70;12.57;;;7.00;99.90;;;;;;5093283;28;20024;-80
2022/01/23 12:17:16;;;;;;;24.23;12.10;;;7.10;99.90;;;;;;5090367;28;20027;-76
2022/01/23 12:19:58;;;;;;;25.20;11.63;;;7.10;99.90;;;;;;5092334;28;20056;-77
2022/01/23 12:22:30;;;;;;;20.38;8.48;;;7.10;99.90;;;;;;5089472;28;20032;-76
2022/01/23 12:25:06;;;;;;;28.93;12.30;;;7.20;99.90;;;;;;5090392;28;20480;-77
2022/01/23 12:27:32;;;;;;;23.80;12.40;;;7.10;99.90;;;;;;5072299;28;20025;-78
2022/01/23 12:30:17;;;;;;;26.30;12.03;;;7.20;99.90;;;;;;5091306;28;20404;-78
2022/01/23 12:32:44;;;;;;;27.30;12.67;;;7.20;99.90;;;;;;5081929;28;20044;-77
2022/01/23 12:35:10;;;;;;;27.90;13.40;;;7.20;99.90;;;;;;5076445;28;20494;-78
2022/01/23 12:38:09;;;;;;;29.87;13.07;;;7.20;99.90;;;;;;5087604;28;20069;-77
2022/01/23 12:40:43;;;;;;;24.40;12.67;;;7.20;99.90;;;;;;5063731;28;20492;-77
2022/01/23 12:43:21;;;;;;;25.70;13.57;;;7.30;99.90;;;;;;5084773;28;20035;-77
2022/01/23 12:45:53;;;;;;;22.87;11.20;;;7.30;99.90;;;;;;5090865;28;20024;-77
2022/01/23 12:48:24;;;;;;;23.02;11.25;;;7.20;99.90;;;;;;5083559;28;20068;-77
2022/01/23 12:50:55;;;;;;;22.05;11.30;;;7.30;99.90;;;;;;5087195;28;20385;-77
2022/01/23 12:53:21;;;;;;;22.52;11.52;;;7.30;99.90;;;;;;5083256;28;20067;-78
2022/01/23 12:56:08;;;;;;;24.13;11.20;;;7.30;99.90;;;;;;5081466;28;20039;-77
2022/01/23 12:58:34;;;;;;;24.40;11.87;;;7.30;99.90;;;;;;5084756;28;20020;-77
2022/01/23 13:01:05;;;;;;;25.90;11.55;;;7.30;99.90;;;;;;5084082;28;20038;-77
2022/01/23 13:03:30;;;;;;;23.07;10.97;;;7.40;99.90;;;;;;5099079;28;20054;-77
2022/01/23 13:05:56;;;;;;;22.10;10.60;;;7.40;99.90;;;;;;5080049;28;20079;-76
2022/01/23 13:08:34;;;;;;;27.00;12.43;;;7.50;99.90;;;;;;5090161;28;20427;-76
2022/01/23 13:18:44;;;;;;;20.60;10.85;;;7.60;99.90;;;;;;5091181;28;20036;-77
2022/01/23 13:34:55;;;;;;;21.23;10.55;;;7.70;99.90;;;;;;5106091;28;20032;-76
2022/01/23 13:37:27;;;;;;;22.63;10.73;;;7.70;99.90;;;;;;5112655;28;20024;-76
2022/01/23 13:40:03;;;;;;;22.98;11.98;;;7.70;99.90;;;;;;5093781;28;20185;-75
2022/01/23 13:47:51;;;;;;;23.60;11.70;;;7.60;99.90;;;;;;5088364;28;20027;-76
2022/01/23 13:59:27;;;;;;;23.50;10.98;;;7.90;99.90;;;;;;5116136;28;20503;-76
2022/01/23 14:02:08;;;;;;;20.30;9.90;;;7.90;99.90;;;;;;5097243;28;20446;-76
2022/01/23 14:04:40;;;;;;;23.55;10.77;;;7.90;99.90;;;;;;5092842;28;20020;-76
2022/01/23 14:07:06;;;;;;;22.13;10.73;;;7.90;99.90;;;;;;5089820;28;20031;-75
2022/01/23 14:09:43;;;;;;;20.95;10.80;;;7.90;99.90;;;;;;5097352;28;20039;-76
2022/01/23 14:12:11;;;;;;;23.02;9.98;;;7.90;99.90;;;;;;5093761;28;20073;-76
2022/01/23 14:14:51;;;;;;;20.75;10.75;;;7.90;99.90;;;;;;5096905;28;20019;-79
2022/01/23 14:17:17;;;;;;;20.95;10.50;;;7.90;99.90;;;;;;5089393;28;20036;-75
2022/01/23 14:19:56;;;;;;;24.27;10.52;;;7.80;99.90;;;;;;5089307;28;20027;-75
2022/01/23 14:22:31;;;;;;;19.55;9.98;;;7.80;99.90;;;;;;5088931;28;20027;-83
2022/01/23 14:25:08;;;;;;;24.27;10.07;;;7.70;99.90;;;;;;5094565;28;20044;-74
2022/01/23 14:27:34;;;;;;;59.63;25.58;;;7.70;99.90;;;;;;5111508;27;20076;-74
2022/01/23 14:30:08;;;;;;;22.42;11.52;;;7.70;99.90;;;;;;5112926;28;20364;-76
2022/01/23 14:32:48;;;;;;;21.80;9.88;;;7.70;99.90;;;;;;5097053;28;20030;-77
2022/01/23 14:35:24;;;;;;;20.85;10.55;;;7.60;99.90;;;;;;5112999;27;20473;-75
2022/01/23 14:37:51;;;;;;;18.25;10.02;;;7.50;99.90;;;;;;5095898;28;20024;-75
2022/01/23 14:40:27;;;;;;;21.23;10.23;;;7.60;99.90;;;;;;5096743;28;20024;-75
2022/01/23 14:43:11;;;;;;;21.25;10.27;;;7.50;99.90;;;;;;5113987;28;20106;-75
2022/01/23 14:45:48;;;;;;;20.08;9.55;;;7.50;99.90;;;;;;5090004;28;20031;-75
2022/01/23 14:48:16;;;;;;;20.83;9.63;;;7.40;99.90;;;;;;5096336;28;20024;-76
2022/01/23 14:50:46;;;;;;;21.93;10.17;;;7.40;99.90;;;;;;5096438;28;20038;-75
2022/01/23 14:53:18;;;;;;;18.38;9.48;;;7.40;99.90;;;;;;5109286;28;20053;-75
2022/01/23 14:55:53;;;;;;;21.83;10.27;;;7.40;99.90;;;;;;5088114;28;20027;-73
2022/01/23 14:58:22;;;;;;;21.67;9.82;;;7.40;99.90;;;;;;5087412;28;20028;-75
2022/01/23 15:00:56;;;;;;;19.48;9.45;;;7.40;99.90;;;;;;5110101;28;20384;-74
2022/01/23 15:03:23;;;;;;;20.80;9.70;;;7.40;99.90;;;;;;5086340;28;20020;-75
2022/01/23 15:05:49;;;;;;;18.40;9.73;;;7.40;99.90;;;;;;5102215;28;20091;-75
2022/01/23 15:08:20;;;;;;;17.90;9.50;;;7.30;99.90;;;;;;5081059;28;20111;-75
2022/01/23 15:10:46;;;;;;;17.87;9.27;;;7.30;99.90;;;;;;5083620;28;20107;-77
2022/01/23 15:13:13;;;;;;;18.80;9.07;;;7.30;99.90;;;;;;5084196;28;20499;-75
2022/01/23 15:15:39;;;;;;;19.40;9.13;;;7.30;99.90;;;;;;5095974;28;20419;-75
2022/01/23 15:18:06;;;;;;;17.42;8.35;;;7.30;99.90;;;;;;5096331;28;20034;-75
2022/01/23 15:20:33;;;;;;;18.38;8.35;;;7.30;99.90;;;;;;5096664;28;20039;-75
2022/01/23 15:22:59;;;;;;;14.33;7.17;;;7.30;99.90;;;;;;5092375;28;20046;-75
2022/01/23 15:25:26;;;;;;;15.68;7.95;;;7.20;99.90;;;;;;5105143;28;20075;-76
2022/01/23 15:27:52;;;;;;;15.20;8.17;;;7.20;99.90;;;;;;5098694;27;20058;-76
2022/01/23 15:30:20;;;;;;;14.18;6.53;;;7.10;99.90;;;;;;5114280;28;20115;-75
2022/01/23 15:32:46;;;;;;;13.85;6.20;;;7.10;99.90;;;;;;5114260;28;20024;-79
2022/01/23 15:35:13;;;;;;;11.85;7.13;;;7.10;99.90;;;;;;5088108;28;20115;-76
2022/01/23 15:37:40;;;;;;;12.07;6.10;;;7.10;99.90;;;;;;5112754;28;20019;-75
2022/01/23 15:40:10;;;;;;;13.77;6.85;;;7.10;99.90;;;;;;5107430;28;20054;-76
2022/01/23 15:42:37;;;;;;;14.93;6.22;;;7.00;99.90;;;;;;5096242;28;20110;-77
2022/01/23 15:45:03;;;;;;;11.33;6.23;;;7.00;99.90;;;;;;5103674;28;20024;-77
2022/01/23 15:47:29;;;;;;;11.70;5.90;;;7.00;99.90;;;;;;5092503;28;20079;-77
2022/01/23 15:49:54;;;;;;;14.35;6.38;;;7.00;99.90;;;;;;5113789;28;20019;-76
2022/01/23 15:52:20;;;;;;;11.20;6.20;;;6.90;99.90;;;;;;5114488;28;20540;-77
2022/01/23 15:54:46;;;;;;;12.23;6.27;;;6.90;99.90;;;;;;5086280;28;20028;-74
2022/01/23 15:57:12;;;;;;;10.90;6.23;;;6.90;99.90;;;;;;5090923;28;20353;-76
2022/01/23 15:59:37;;;;;;;12.47;6.53;;;6.90;99.90;;;;;;5113074;28;20149;-75
2022/01/23 16:02:07;;;;;;;13.20;6.47;;;6.90;99.90;;;;;;5094632;28;20020;-75
2022/01/23 16:04:37;;;;;;;11.10;6.30;;;6.90;99.90;;;;;;5089567;28;20495;-73
2022/01/23 16:07:04;;;;;;;10.77;5.67;;;6.80;99.90;;;;;;5104866;28;20527;-75
2022/01/23 16:09:30;;;;;;;9.27;4.83;;;6.90;99.90;;;;;;5094922;28;20019;-75
2022/01/23 16:11:55;;;;;;;7.77;4.77;;;6.90;99.90;;;;;;5112276;28;20081;-74
2022/01/23 16:14:21;;;;;;;9.50;5.10;;;6.80;99.90;;;;;;5102744;28;20032;-74
2022/01/23 16:16:48;;;;;;;9.10;4.90;;;6.80;99.90;;;;;;5091539;28;20031;-74
2022/01/23 16:19:15;;;;;;;9.33;5.10;;;6.80;99.90;;;;;;5103952;28;20073;-75